Terminal Aerodrome Forecast
Issued by NWS

Home | Current Version | Previous Version | Text Only | Print | Product List | Glossary On
Versions: 1 2 3 4 5 6 7 8 9 10 11 12 13 14 15
076
FTUS45 KTFX 230013 RRA
TAFHLN
TAF
KHLN 230013Z 2300/2324 26007KT P6SM SCT050 BKN200
     FM231200 30008KT P6SM FEW020 SCT050
     FM231700 28008KT P6SM BKN150=

USA.gov is the U.S. government's official web portal to all federal, state and local government web resources and services.